Airfield :
LOGIN :

Register | Disclaimer

   EN    FR    IT 

 










Legend :    VFR   Marginal VFR   IFR   Intensive IFR   Very Intensive IFR
Visi :
Ceiling :
>= 8 km
>= 3000ft
5 to 8 km
1000 to 3000 ft
1500m to 5 km
500 to 1000 ft
800 to 1500m
200 to 500 ft
< 800m
< 200 ft
Symbols :   Thunderstorms  Fog  Heavy snow  Heavy precipitations  Wind > 20 kt
SIGMETs :     Misc.  Thunderstorms  Icing  Turbulence  Mountain Waves  Volcanic Ashes






- Airport Elevation : 37 ft


EHVL - Vlieland Heliport

CURRENT METAR :
  • 241725Z AUTO 25014KT 9999 FEW012 SCT014 BKN087 13/10 Q1007 GRN

EXPIRED METARs :
  • 241655Z AUTO 26017KT 9999 FEW013 14/09 Q1007 BLU
  • 241625Z AUTO 25016KT 9999 SCT013 SCT015 14/10 Q1007 GRN
  • 241555Z AUTO 25016KT 9999 FEW012 SCT014 14/10 Q1006 GRN
  • 241529Z AUTO 25016KT 9999 FEW013 SCT015 14/10 Q1006 WHT
  • 241510Z AUTO 26018KT 9999 SCT013 BKN015 BKN021 14/09 Q1006 GRN
  • 241504Z AUTO 26018KT 9999 FEW012 SCT015 BKN019 15/10 Q1006 WHT
  • 241455Z AUTO 25019KT 9999 SCT012 SCT016 14/10 Q1006 GRN
  • 241445Z AUTO 25019KT 9999 FEW012 14/10 Q1006 BLU
  • 241434Z AUTO 25020KT 9999 FEW013 BKN015 BKN023 14/10 Q1005 WHT

Expired Forecast.



MET'MAP, your aeronautical weather chart ! - Copyright ORBIFLY December 2007 - Disclaimer

ORBIFLY MET'MAP TEAM :

Programming & Development : Alexandra Zaïnal
Original concept : Baudouin d'Aumeries
Technical & hardware support : Manuel Goepfert
Assistance : Marc-Olivier Méhu

Contact : metmap@orbifly.com




SOURCES & CREDITS :

   NOAA